createdAt,value
2017-02-22T00:00:56.323Z,10.2
2017-02-22T00:02:06.554Z,10.17
2017-02-22T00:03:15.641Z,10.12
2017-02-22T00:04:24.714Z,10.12
2017-02-22T00:05:34.180Z,10.17
2017-02-22T00:06:44.045Z,10.12
2017-02-22T00:07:53.496Z,10.15
2017-02-22T00:09:02.945Z,10.18
2017-02-22T00:10:12.431Z,10.14
2017-02-22T00:11:22.266Z,10.14
2017-02-22T00:12:31.742Z,10.17
2017-02-22T00:13:41.595Z,10.2
2017-02-22T00:14:51.057Z,10.17
2017-02-22T00:16:00.887Z,10.09
2017-02-22T00:17:10.713Z,10.17
2017-02-22T00:18:20.166Z,10.17
2017-02-22T00:19:29.623Z,10.2
2017-02-22T00:20:39.482Z,10.23
2017-02-22T00:21:48.547Z,10.23
2017-02-22T00:22:57.999Z,10.23
2017-02-22T00:24:06.680Z,10.27
2017-02-22T00:25:16.914Z,10.29
2017-02-22T00:26:26.387Z,10.32
2017-02-22T00:27:36.242Z,10.25
2017-02-22T00:28:45.710Z,10.33
2017-02-22T00:29:55.159Z,10.38
2017-02-22T00:31:04.605Z,10.44
2017-02-22T00:32:15.206Z,10.34
2017-02-22T00:33:24.655Z,10.32
2017-02-22T00:34:34.103Z,10.25
2017-02-22T00:35:43.542Z,10.27
2017-02-22T00:36:52.257Z,10.23
2017-02-22T00:38:02.086Z,10.32
2017-02-22T00:39:11.163Z,10.27
2017-02-22T00:40:20.223Z,10.36
2017-02-22T00:41:29.686Z,10.36
2017-02-22T00:42:39.135Z,10.36
2017-02-22T00:43:48.205Z,10.33
2017-02-22T00:44:56.883Z,10.33
2017-02-22T00:46:06.013Z,10.38
2017-02-22T00:47:15.501Z,10.3
2017-02-22T00:48:24.195Z,10.34
2017-02-22T00:49:33.267Z,10.33
2017-02-22T00:50:42.342Z,10.36
2017-02-22T00:51:51.788Z,10.29
2017-02-22T00:53:00.480Z,10.33
2017-02-22T00:54:09.919Z,10.34
2017-02-22T00:55:19.010Z,10.4
2017-02-22T00:56:28.460Z,10.36
2017-02-22T00:57:37.528Z,10.47
2017-02-22T00:58:46.971Z,10.45
2017-02-22T00:59:56.418Z,10.42
2017-02-22T01:01:06.265Z,10.41
2017-02-22T01:02:16.118Z,10.48
2017-02-22T01:03:25.950Z,10.55
2017-02-22T01:04:35.050Z,10.52
2017-02-22T01:05:44.497Z,10.44
2017-02-22T01:06:53.562Z,10.48
2017-02-22T01:08:03.023Z,10.48
2017-02-22T01:09:13.246Z,10.42
2017-02-22T01:10:22.711Z,10.45
2017-02-22T01:11:32.560Z,10.52
2017-02-22T01:12:42.009Z,10.52
2017-02-22T01:13:51.856Z,10.47
2017-02-22T01:15:01.335Z,10.47
2017-02-22T01:16:10.775Z,10.63
2017-02-22T01:17:20.626Z,10.53
2017-02-22T01:18:30.850Z,10.51
2017-02-22T01:19:41.068Z,10.63
2017-02-22T01:20:50.148Z,10.6
2017-02-22T01:21:59.619Z,10.66
2017-02-22T01:23:09.481Z,10.55
2017-02-22T01:24:18.161Z,10.6
2017-02-22T01:25:27.243Z,10.51
2017-02-22T01:26:35.936Z,10.59
2017-02-22T01:27:45.786Z,10.51
2017-02-22T01:28:55.241Z,10.56
2017-02-22T01:30:05.081Z,10.55
2017-02-22T01:31:14.529Z,10.63
2017-02-22T01:32:23.983Z,10.67
2017-02-22T01:33:33.054Z,10.66
2017-02-22T01:34:42.126Z,10.64
2017-02-22T01:35:51.960Z,10.64
2017-02-22T01:37:00.641Z,10.63
2017-02-22T01:38:09.726Z,10.67
2017-02-22T01:39:18.785Z,10.67
2017-02-22T01:40:27.473Z,10.64
2017-02-22T01:41:37.315Z,10.68
2017-02-22T01:42:46.413Z,10.66
2017-02-22T01:43:55.881Z,10.56
2017-02-22T01:45:04.957Z,10.63
2017-02-22T01:46:14.431Z,10.68
2017-02-22T01:47:23.891Z,10.68
2017-02-22T01:48:34.107Z,10.68
2017-02-22T01:49:43.183Z,10.66
2017-02-22T01:50:52.265Z,10.63
2017-02-22T01:52:01.741Z,10.63
2017-02-22T01:53:11.181Z,10.64
2017-02-22T01:54:21.399Z,10.67
2017-02-22T01:55:30.088Z,10.64
2017-02-22T01:56:39.535Z,10.68
2017-02-22T01:57:48.971Z,10.63
2017-02-22T01:58:58.416Z,10.61
2017-02-22T02:00:07.884Z,10.68
2017-02-22T02:01:16.946Z,10.64
2017-02-22T02:02:26.394Z,10.67
2017-02-22T02:03:35.466Z,10.82
2017-02-22T02:04:44.548Z,10.64
2017-02-22T02:05:53.608Z,10.64
2017-02-22T02:07:03.436Z,10.76
2017-02-22T02:08:12.517Z,10.7
2017-02-22T02:09:22.348Z,10.79
2017-02-22T02:10:32.180Z,10.76
2017-02-22T02:11:42.007Z,10.84
2017-02-22T02:12:51.469Z,10.82
2017-02-22T02:14:00.540Z,10.79
2017-02-22T02:15:09.993Z,10.86
2017-02-22T02:16:19.061Z,10.76
2017-02-22T02:17:28.507Z,10.79
2017-02-22T02:18:37.959Z,10.79
2017-02-22T02:19:47.787Z,10.74
2017-02-22T02:20:57.259Z,10.76
2017-02-22T02:22:06.706Z,10.61
2017-02-22T02:23:15.787Z,10.71
2017-02-22T02:24:25.241Z,10.67
2017-02-22T02:25:34.744Z,10.76
2017-02-22T02:26:43.440Z,10.7
2017-02-22T02:27:52.540Z,10.82
2017-02-22T02:29:02.395Z,10.85
2017-02-22T02:30:11.853Z,10.82
2017-02-22T02:31:21.313Z,10.81
2017-02-22T02:32:30.802Z,10.74
2017-02-22T02:33:40.637Z,10.79
2017-02-22T02:34:50.087Z,10.81
2017-02-22T02:35:59.572Z,10.76
2017-02-22T02:37:08.635Z,10.76
2017-02-22T02:38:17.326Z,10.73
2017-02-22T02:39:26.790Z,10.7
2017-02-22T02:40:36.251Z,10.7
2017-02-22T02:41:45.361Z,10.81
2017-02-22T02:42:54.473Z,10.78
2017-02-22T02:44:03.163Z,10.66
2017-02-22T02:45:12.234Z,10.63
2017-02-22T02:46:21.305Z,10.71
2017-02-22T02:47:30.377Z,10.71
2017-02-22T02:48:39.844Z,10.71
2017-02-22T02:49:48.914Z,10.71
2017-02-22T02:50:57.981Z,10.71
2017-02-22T02:52:07.047Z,10.64
2017-02-22T02:53:16.881Z,10.7
2017-02-22T02:54:25.943Z,10.73
2017-02-22T02:55:34.623Z,10.79
2017-02-22T02:56:44.067Z,10.81
2017-02-22T02:57:53.525Z,10.82
2017-02-22T02:59:02.972Z,10.7
2017-02-22T03:00:12.040Z,10.76
2017-02-22T03:01:21.864Z,10.82
2017-02-22T03:02:31.313Z,10.76
2017-02-22T03:03:40.766Z,10.64
2017-02-22T03:04:49.840Z,10.78
2017-02-22T03:05:59.302Z,10.66
2017-02-22T03:07:10.530Z,10.74
2017-02-22T03:08:19.597Z,10.66
2017-02-22T03:09:29.442Z,10.67
2017-02-22T03:10:38.895Z,10.67
2017-02-22T03:11:48.960Z,10.64
2017-02-22T03:12:58.408Z,10.7
2017-02-22T03:14:08.233Z,10.66
2017-02-22T03:15:16.934Z,10.64
2017-02-22T03:16:28.141Z,10.64
2017-02-22T03:17:37.260Z,10.67
2017-02-22T03:18:46.323Z,10.66
2017-02-22T03:19:56.149Z,10.7
2017-02-22T03:21:05.597Z,10.67
2017-02-22T03:22:16.060Z,10.63
2017-02-22T03:23:25.127Z,10.68
2017-02-22T03:24:34.573Z,10.63
2017-02-22T03:25:43.633Z,10.64
2017-02-22T03:26:53.081Z,10.68
2017-02-22T03:28:02.150Z,10.67
2017-02-22T03:29:11.994Z,10.74
2017-02-22T03:30:20.682Z,10.74
2017-02-22T03:31:30.129Z,10.76
2017-02-22T03:32:39.233Z,10.76
2017-02-22T03:33:48.305Z,10.74
2017-02-22T03:34:57.744Z,10.67
2017-02-22T03:36:06.444Z,10.76
2017-02-22T03:37:15.143Z,10.81
2017-02-22T03:38:23.834Z,10.81
2017-02-22T03:39:32.514Z,10.78
2017-02-22T03:40:42.348Z,10.74
2017-02-22T03:41:52.569Z,10.84
2017-02-22T03:43:02.019Z,10.81
2017-02-22T03:44:10.703Z,10.7
2017-02-22T03:45:19.790Z,10.7
2017-02-22T03:46:29.233Z,10.71
2017-02-22T03:47:38.298Z,10.63
2017-02-22T03:48:46.995Z,10.66
2017-02-22T03:49:55.702Z,10.64
2017-02-22T03:51:04.379Z,10.68
2017-02-22T03:52:13.855Z,10.68
2017-02-22T03:53:22.963Z,10.64
2017-02-22T03:54:32.046Z,10.64
2017-02-22T03:55:41.487Z,10.7
2017-02-22T03:56:50.945Z,10.7
2017-02-22T03:58:00.396Z,10.66
2017-02-22T03:59:09.848Z,10.63
2017-02-22T04:00:19.284Z,10.64
2017-02-22T04:01:28.730Z,10.64
2017-02-22T04:02:37.791Z,10.52
2017-02-22T04:03:47.247Z,10.56
2017-02-22T04:04:55.923Z,10.59
2017-02-22T04:06:05.762Z,10.56
2017-02-22T04:07:15.991Z,10.53
2017-02-22T04:08:25.071Z,10.56
2017-02-22T04:09:34.155Z,10.55
2017-02-22T04:10:42.864Z,10.59
2017-02-22T04:11:51.546Z,10.53
2017-02-22T04:13:01.005Z,10.6
2017-02-22T04:14:10.094Z,10.64
2017-02-22T04:15:19.153Z,10.59
2017-02-22T04:16:28.601Z,10.67
2017-02-22T04:17:37.693Z,10.59
2017-02-22T04:18:47.143Z,10.53
2017-02-22T04:19:55.846Z,10.6
2017-02-22T04:21:05.286Z,10.6
2017-02-22T04:22:15.114Z,10.55
2017-02-22T04:23:24.597Z,10.59
2017-02-22T04:24:33.691Z,10.59
2017-02-22T04:25:43.167Z,10.61
2017-02-22T04:26:51.849Z,10.59
2017-02-22T04:28:00.916Z,10.59
2017-02-22T04:29:09.618Z,10.52
2017-02-22T04:30:19.099Z,10.6
2017-02-22T04:31:28.556Z,10.56
2017-02-22T04:32:37.613Z,10.56
2017-02-22T04:33:47.056Z,10.52
2017-02-22T04:34:56.503Z,10.59
2017-02-22T04:36:05.959Z,10.63
2017-02-22T04:37:15.399Z,10.64
2017-02-22T04:38:24.078Z,10.53
2017-02-22T04:39:32.784Z,10.59
2017-02-22T04:40:41.858Z,10.68
2017-02-22T04:41:50.933Z,10.64
2017-02-22T04:43:00.003Z,10.67
2017-02-22T04:44:09.063Z,10.59
2017-02-22T04:45:18.514Z,10.59
2017-02-22T04:46:27.588Z,10.53
2017-02-22T04:47:37.047Z,10.64
2017-02-22T04:48:46.500Z,10.56
2017-02-22T04:49:55.585Z,10.61
2017-02-22T04:51:05.021Z,10.56
2017-02-22T04:52:14.466Z,10.59
2017-02-22T04:53:23.526Z,10.56
2017-02-22T04:54:32.588Z,10.6
2017-02-22T04:55:41.659Z,10.55
2017-02-22T04:56:51.103Z,10.53
2017-02-22T04:58:00.553Z,10.56
2017-02-22T04:59:10.010Z,10.61
2017-02-22T05:00:19.835Z,10.53
2017-02-22T05:01:29.281Z,10.56
2017-02-22T05:02:39.126Z,10.56
2017-02-22T05:03:47.804Z,10.48
2017-02-22T05:04:56.888Z,10.55
2017-02-22T05:06:05.965Z,10.42
2017-02-22T05:07:14.649Z,10.51
2017-02-22T05:08:23.321Z,10.33
2017-02-22T05:09:33.159Z,10.36
2017-02-22T05:10:42.611Z,10.26
2017-02-22T05:11:52.085Z,10.14
2017-02-22T05:13:02.294Z,10.01
2017-02-22T05:14:10.981Z,9.75
2017-02-22T05:15:20.051Z,9.78
2017-02-22T05:16:29.886Z,9.76
2017-02-22T05:17:39.345Z,9.61
2017-02-22T05:18:48.444Z,9.66
2017-02-22T05:19:57.530Z,9.61
2017-02-22T05:21:06.589Z,9.64
2017-02-22T05:22:16.437Z,9.58
2017-02-22T05:23:25.900Z,9.56
2017-02-22T05:24:36.140Z,9.56
2017-02-22T05:25:44.816Z,9.54
2017-02-22T05:26:54.287Z,9.53
2017-02-22T05:28:03.744Z,9.54
2017-02-22T05:29:13.187Z,9.53
2017-02-22T05:30:22.264Z,9.47
2017-02-22T05:31:31.720Z,9.5
2017-02-22T05:32:40.809Z,9.46
2017-02-22T05:33:49.882Z,9.36
2017-02-22T05:34:59.336Z,9.39
2017-02-22T05:36:08.408Z,9.38
2017-02-22T05:37:17.480Z,9.42
2017-02-22T05:38:27.313Z,9.43
2017-02-22T05:39:36.760Z,9.32
2017-02-22T05:40:46.213Z,9.31
2017-02-22T05:41:55.299Z,9.31
2017-02-22T05:43:04.388Z,9.23
2017-02-22T05:44:13.084Z,9.21
2017-02-22T05:45:22.534Z,9.24
2017-02-22T05:46:31.619Z,9.15
2017-02-22T05:47:41.091Z,9.26
2017-02-22T05:48:50.560Z,9.18
2017-02-22T05:50:00.392Z,9.29
2017-02-22T05:51:09.463Z,9.18
2017-02-22T05:52:19.306Z,9.28
2017-02-22T05:53:28.389Z,9.28
2017-02-22T05:54:37.829Z,9.24
2017-02-22T05:55:47.266Z,9.31
2017-02-22T05:56:56.337Z,9.18
2017-02-22T05:58:05.414Z,9.18
2017-02-22T05:59:14.097Z,9.26
2017-02-22T06:00:23.152Z,9.24
2017-02-22T06:01:33.014Z,9.2
2017-02-22T06:02:42.877Z,9.39
2017-02-22T06:03:52.343Z,9.32
2017-02-22T06:05:01.038Z,9.33
2017-02-22T06:06:10.124Z,9.36
2017-02-22T06:07:19.558Z,9.2
2017-02-22T06:08:29.427Z,9.26
2017-02-22T06:09:39.285Z,9.23
2017-02-22T06:10:49.131Z,9.24
2017-02-22T06:11:58.574Z,9.18
2017-02-22T06:13:07.270Z,9.21
2017-02-22T06:14:16.345Z,9.32
2017-02-22T06:15:25.403Z,9.36
2017-02-22T06:16:34.838Z,9.38
2017-02-22T06:17:44.290Z,9.35
2017-02-22T06:18:53.756Z,9.4
2017-02-22T06:20:03.190Z,9.32
2017-02-22T06:21:11.889Z,9.29
2017-02-22T06:22:21.330Z,9.31
2017-02-22T06:23:31.198Z,9.26
2017-02-22T06:24:41.014Z,9.4
2017-02-22T06:25:49.707Z,9.38
2017-02-22T06:26:59.152Z,9.35
2017-02-22T06:28:08.633Z,9.24
2017-02-22T06:29:17.699Z,9.29
2017-02-22T06:30:27.153Z,9.29
2017-02-22T06:31:36.990Z,9.29
2017-02-22T06:32:46.448Z,9.18
2017-02-22T06:33:55.533Z,9.21
2017-02-22T06:35:04.607Z,9.24
2017-02-22T06:36:14.062Z,9.24
2017-02-22T06:37:23.934Z,9.26
2017-02-22T06:38:33.397Z,9.21
2017-02-22T06:39:42.456Z,9.23
2017-02-22T06:40:51.907Z,9.2
2017-02-22T06:42:01.730Z,9.28
2017-02-22T06:43:10.825Z,9.21
2017-02-22T06:44:20.260Z,9.36
2017-02-22T06:45:29.729Z,9.23
2017-02-22T06:46:39.209Z,9.18
2017-02-22T06:47:48.271Z,9.35
2017-02-22T06:48:57.719Z,9.26
2017-02-22T06:50:06.792Z,9.26
2017-02-22T06:51:15.867Z,9.29
2017-02-22T06:52:24.939Z,9.31
2017-02-22T06:53:34.011Z,9.2
2017-02-22T06:54:42.681Z,9.18
2017-02-22T06:55:51.745Z,9.29
2017-02-22T06:57:01.208Z,9.35
2017-02-22T06:58:11.039Z,9.32
2017-02-22T06:59:20.514Z,9.32
2017-02-22T07:00:29.187Z,9.38
2017-02-22T07:01:38.628Z,9.24
2017-02-22T07:02:47.705Z,9.29
2017-02-22T07:03:57.150Z,9.35
2017-02-22T07:05:06.968Z,9.31
2017-02-22T07:06:16.425Z,9.29
2017-02-22T07:07:25.510Z,9.38
2017-02-22T07:08:34.579Z,9.42
2017-02-22T07:09:44.415Z,9.4
2017-02-22T07:10:54.259Z,9.5
2017-02-22T07:12:03.733Z,9.4
2017-02-22T07:13:13.195Z,9.39
2017-02-22T07:14:23.406Z,9.4
2017-02-22T07:15:32.865Z,9.43
2017-02-22T07:16:41.939Z,9.42
2017-02-22T07:17:50.994Z,9.39
2017-02-22T07:19:00.451Z,9.38
2017-02-22T07:20:09.158Z,9.33
2017-02-22T07:21:18.997Z,9.4
2017-02-22T07:22:28.075Z,9.39
2017-02-22T07:23:37.190Z,9.43
2017-02-22T07:24:46.272Z,9.39
2017-02-22T07:25:55.712Z,9.4
2017-02-22T07:27:04.761Z,9.4
2017-02-22T07:28:14.215Z,9.36
2017-02-22T07:29:23.657Z,9.38
2017-02-22T07:30:32.356Z,9.38
2017-02-22T07:31:41.428Z,9.35
2017-02-22T07:32:51.268Z,9.38
2017-02-22T07:34:00.718Z,9.42
2017-02-22T07:35:10.161Z,9.4
2017-02-22T07:36:19.238Z,9.47
2017-02-22T07:37:28.313Z,9.39
2017-02-22T07:38:37.775Z,9.36
2017-02-22T07:39:46.862Z,9.43
2017-02-22T07:40:55.934Z,9.38
2017-02-22T07:42:05.783Z,9.38
2017-02-22T07:43:14.474Z,9.38
2017-02-22T07:44:24.303Z,9.39
2017-02-22T07:45:33.763Z,9.5
2017-02-22T07:46:43.591Z,9.46
2017-02-22T07:47:52.658Z,9.42
2017-02-22T07:49:02.134Z,9.46
2017-02-22T07:50:11.582Z,9.47
2017-02-22T07:51:21.046Z,9.53
2017-02-22T07:52:30.519Z,9.43
2017-02-22T07:53:39.604Z,9.43
2017-02-22T07:54:48.683Z,9.48
2017-02-22T07:55:57.373Z,9.46
2017-02-22T07:57:06.832Z,9.46
2017-02-22T07:58:15.916Z,9.46
2017-02-22T07:59:24.986Z,9.38
2017-02-22T08:00:34.821Z,9.5
2017-02-22T08:01:44.259Z,9.54
2017-02-22T08:02:54.092Z,9.47
2017-02-22T08:04:03.170Z,9.47
2017-02-22T08:10:04.867Z,9.51
2017-02-22T08:11:14.306Z,9.64
2017-02-22T08:12:23.382Z,9.61
2017-02-22T08:13:32.843Z,9.51
2017-02-22T08:14:42.671Z,9.66
2017-02-22T08:15:52.109Z,9.57
2017-02-22T08:17:01.570Z,9.65
2017-02-22T08:18:10.637Z,9.54
2017-02-22T08:19:19.700Z,9.54
2017-02-22T08:20:28.451Z,9.54
2017-02-22T08:21:37.511Z,9.56
2017-02-22T08:22:46.595Z,9.58
2017-02-22T08:23:55.709Z,9.65
2017-02-22T08:25:05.175Z,9.57
2017-02-22T08:26:14.267Z,9.65
2017-02-22T08:27:23.707Z,9.51
2017-02-22T08:28:32.397Z,9.66
2017-02-22T08:29:41.849Z,9.64
2017-02-22T08:30:51.719Z,9.69
2017-02-22T08:32:00.831Z,9.58
2017-02-22T08:33:09.922Z,9.6
2017-02-22T08:34:19.382Z,9.61
2017-02-22T08:35:28.066Z,9.66
2017-02-22T08:36:37.150Z,9.66
2017-02-22T08:37:46.626Z,9.61
2017-02-22T08:38:56.083Z,9.61
2017-02-22T08:40:05.535Z,9.64
2017-02-22T08:41:14.972Z,9.64
2017-02-22T08:42:24.411Z,9.64
2017-02-22T08:43:33.847Z,9.65
2017-02-22T08:44:43.310Z,9.61
2017-02-22T08:45:53.161Z,9.61
2017-02-22T08:47:02.619Z,9.66
2017-02-22T08:48:12.101Z,9.65
2017-02-22T08:49:21.176Z,9.66
2017-02-22T08:50:30.251Z,9.65
2017-02-22T08:51:38.962Z,9.68
2017-02-22T08:52:48.038Z,9.69
2017-02-22T08:53:56.729Z,9.72
2017-02-22T08:55:06.193Z,9.71
2017-02-22T08:56:15.636Z,9.66
2017-02-22T08:57:24.332Z,9.72
2017-02-22T08:58:33.405Z,9.74
2017-02-22T08:59:42.479Z,9.79
2017-02-22T09:00:51.550Z,9.81
2017-02-22T09:02:00.231Z,9.83
2017-02-22T09:03:08.908Z,9.74
2017-02-22T09:04:17.988Z,9.76
2017-02-22T09:05:27.065Z,9.84
2017-02-22T09:06:36.529Z,9.84
2017-02-22T09:07:46.391Z,9.79
2017-02-22T09:08:55.465Z,9.83
2017-02-22T09:10:04.913Z,9.79
2017-02-22T09:11:14.350Z,9.87
2017-02-22T09:12:23.783Z,9.86
2017-02-22T09:13:33.244Z,9.78
2017-02-22T09:14:43.486Z,9.87
2017-02-22T09:15:52.544Z,9.87
2017-02-22T09:17:01.620Z,9.79
2017-02-22T09:18:10.735Z,9.89
2017-02-22T09:19:20.562Z,9.87
2017-02-22T09:20:29.249Z,9.83
2017-02-22T09:21:39.101Z,9.83
2017-02-22T09:22:48.159Z,9.84
2017-02-22T09:23:56.873Z,9.86
2017-02-22T09:25:06.312Z,9.89
2017-02-22T09:26:16.536Z,9.94
2017-02-22T09:27:25.260Z,9.96
2017-02-22T09:28:34.331Z,9.91
2017-02-22T09:29:43.492Z,9.94
2017-02-22T09:30:52.565Z,9.96
2017-02-22T09:32:01.634Z,10.02
2017-02-22T09:33:11.094Z,10.14
2017-02-22T09:34:21.299Z,10.15
2017-02-22T09:35:30.004Z,10.12
2017-02-22T09:36:39.069Z,10.07
2017-02-22T09:37:48.528Z,10.05
2017-02-22T09:38:57.593Z,10.07
2017-02-22T09:40:06.663Z,10.04
2017-02-22T09:41:15.748Z,10.01
2017-02-22T09:42:24.806Z,9.96
2017-02-22T09:43:34.255Z,10.02
2017-02-22T09:44:43.721Z,9.99
2017-02-22T09:45:52.798Z,10.02
2017-02-22T09:47:01.878Z,9.99
2017-02-22T09:48:10.950Z,10.05
2017-02-22T09:49:20.791Z,10.08
2017-02-22T09:50:30.241Z,10.12
2017-02-22T09:51:40.066Z,10.08
2017-02-22T09:52:49.526Z,10.11
2017-02-22T09:53:58.597Z,10.15
2017-02-22T09:55:07.684Z,10.14
2017-02-22T09:56:17.525Z,10.14
2017-02-22T09:57:26.584Z,10.15
2017-02-22T09:58:35.651Z,10.15
2017-02-22T09:59:45.134Z,10.15
2017-02-22T10:00:53.820Z,10.17
2017-02-22T10:02:02.881Z,10.18
2017-02-22T10:03:12.707Z,10.18
2017-02-22T10:04:23.292Z,10.17
2017-02-22T10:05:32.380Z,10.22
2017-02-22T10:06:41.829Z,10.23
2017-02-22T10:07:51.670Z,10.23
2017-02-22T10:09:00.741Z,10.23
2017-02-22T10:10:10.232Z,10.25
2017-02-22T10:11:19.707Z,10.14
2017-02-22T10:12:28.395Z,10.18
2017-02-22T10:13:38.263Z,10.29
2017-02-22T10:14:47.741Z,10.27
2017-02-22T10:15:56.818Z,10.23
2017-02-22T10:17:06.308Z,10.29
2017-02-22T10:18:15.368Z,10.32
2017-02-22T10:19:24.805Z,10.32
2017-02-22T10:20:33.871Z,10.33
2017-02-22T10:21:43.716Z,10.32
2017-02-22T10:22:52.796Z,10.32
2017-02-22T10:24:01.482Z,10.33
2017-02-22T10:25:10.179Z,10.36
2017-02-22T10:26:19.246Z,10.4
2017-02-22T10:27:28.748Z,10.36
2017-02-22T10:28:37.826Z,10.38
2017-02-22T10:29:46.907Z,10.48
2017-02-22T10:30:56.364Z,10.53
2017-02-22T10:32:05.446Z,10.48
2017-02-22T10:33:15.282Z,10.52
2017-02-22T10:34:24.368Z,10.52
2017-02-22T10:35:34.624Z,10.55
2017-02-22T10:36:43.690Z,10.53
2017-02-22T10:37:52.371Z,10.48
2017-02-22T10:39:02.260Z,10.52
2017-02-22T10:40:11.340Z,10.51
2017-02-22T10:41:20.416Z,10.51
2017-02-22T10:42:29.878Z,10.45
2017-02-22T10:43:38.934Z,10.45
2017-02-22T10:44:48.004Z,10.44
2017-02-22T10:45:57.083Z,10.59
2017-02-22T10:47:06.546Z,10.55
2017-02-22T10:48:16.389Z,10.52
2017-02-22T10:49:25.455Z,10.53
2017-02-22T10:50:34.581Z,10.55
2017-02-22T10:51:43.677Z,10.52
2017-02-22T10:52:53.161Z,10.48
2017-02-22T10:54:01.859Z,10.51
2017-02-22T10:55:11.315Z,10.51
2017-02-22T10:56:20.791Z,10.51
2017-02-22T10:57:29.875Z,10.52
2017-02-22T10:58:39.344Z,10.6
2017-02-22T10:59:48.410Z,10.61
2017-02-22T11:00:57.121Z,10.53
2017-02-22T11:02:06.585Z,10.59
2017-02-22T11:03:16.041Z,10.68
2017-02-22T11:04:25.112Z,10.67
2017-02-22T11:05:34.561Z,10.61
2017-02-22T11:06:44.408Z,10.66
2017-02-22T11:07:53.485Z,10.84
2017-02-22T11:09:03.349Z,10.73
2017-02-22T11:10:12.462Z,10.74
2017-02-22T11:11:21.159Z,10.7
2017-02-22T11:12:30.609Z,10.76
2017-02-22T11:13:39.745Z,10.68
2017-02-22T11:14:49.586Z,10.64
2017-02-22T11:15:58.273Z,10.66
2017-02-22T11:17:07.341Z,10.84
2017-02-22T11:18:17.559Z,10.76
2017-02-22T11:19:26.334Z,10.78
2017-02-22T11:20:35.431Z,10.79
2017-02-22T11:21:44.528Z,10.84
2017-02-22T11:22:54.034Z,10.76
2017-02-22T11:24:03.110Z,10.82
2017-02-22T11:25:12.585Z,10.82
2017-02-22T11:26:22.044Z,10.88
2017-02-22T11:27:30.728Z,10.84
2017-02-22T11:28:40.172Z,10.84
2017-02-22T11:29:49.249Z,10.81
2017-02-22T11:30:57.940Z,10.81
2017-02-22T11:32:07.401Z,10.89
2017-02-22T11:33:16.486Z,10.84
2017-02-22T11:34:25.950Z,10.82
2017-02-22T11:35:35.018Z,10.86
2017-02-22T11:36:44.461Z,10.91
2017-02-22T11:37:53.537Z,10.86
2017-02-22T11:39:02.241Z,10.84
2017-02-22T11:40:11.314Z,10.82
2017-02-22T11:41:20.013Z,10.81
2017-02-22T11:42:29.835Z,10.84
2017-02-22T11:43:38.909Z,10.82
2017-02-22T11:44:47.983Z,10.82
2017-02-22T11:45:57.457Z,10.84
2017-02-22T11:47:07.302Z,10.89
2017-02-22T11:48:17.150Z,10.91
2017-02-22T11:49:26.213Z,10.88
2017-02-22T11:50:34.895Z,10.88
2017-02-22T11:51:43.963Z,10.82
2017-02-22T11:52:52.655Z,10.86
2017-02-22T11:54:02.169Z,10.85
2017-02-22T11:55:11.639Z,10.82
2017-02-22T11:56:20.334Z,10.81
2017-02-22T11:57:29.400Z,10.89
2017-02-22T11:58:39.261Z,10.86
2017-02-22T11:59:49.122Z,10.78
2017-02-22T12:00:58.197Z,10.82
2017-02-22T12:02:08.029Z,10.85
2017-02-22T12:03:16.705Z,10.76
2017-02-22T12:04:25.405Z,10.79
2017-02-22T12:05:35.621Z,10.79
2017-02-22T12:06:45.489Z,10.85
2017-02-22T12:07:54.551Z,10.84
2017-02-22T12:09:04.406Z,10.85
2017-02-22T12:10:13.481Z,10.84
2017-02-22T12:11:22.549Z,10.85
2017-02-22T12:12:32.000Z,10.88
2017-02-22T12:13:41.446Z,10.76
2017-02-22T12:14:50.931Z,10.82
2017-02-22T12:16:00.008Z,10.86
2017-02-22T12:17:09.081Z,10.74
2017-02-22T12:18:17.758Z,10.78
2017-02-22T12:19:27.226Z,10.81
2017-02-22T12:20:36.677Z,10.74
2017-02-22T12:21:45.767Z,10.71
2017-02-22T12:22:55.653Z,10.71
2017-02-22T12:24:04.729Z,10.63
2017-02-22T12:25:13.455Z,10.71
2017-02-22T12:26:22.535Z,10.79
2017-02-22T12:27:31.616Z,10.81
2017-02-22T12:28:40.683Z,10.82
2017-02-22T12:29:50.535Z,10.79
2017-02-22T12:30:59.633Z,10.67
2017-02-22T12:32:09.107Z,10.73
2017-02-22T12:33:17.798Z,10.71
2017-02-22T12:34:26.867Z,10.59
2017-02-22T12:35:35.937Z,10.59
2017-02-22T12:36:45.387Z,10.59
2017-02-22T12:37:54.868Z,10.51
2017-02-22T12:39:04.706Z,10.48
2017-02-22T12:40:14.175Z,10.42
2017-02-22T12:41:23.248Z,10.44
2017-02-22T12:42:33.071Z,10.51
2017-02-22T12:43:41.771Z,10.32
2017-02-22T12:44:50.836Z,10.38
2017-02-22T12:46:00.753Z,10.36
2017-02-22T12:47:09.837Z,10.51
2017-02-22T12:48:19.291Z,10.33
2017-02-22T12:49:28.359Z,10.34
2017-02-22T12:50:37.821Z,10.38
2017-02-22T12:51:47.259Z,10.38
2017-02-22T12:52:56.704Z,10.34
2017-02-22T12:54:05.798Z,10.34
2017-02-22T12:55:15.260Z,10.36
2017-02-22T12:56:24.720Z,10.32
2017-02-22T12:57:34.200Z,10.25
2017-02-22T12:58:42.883Z,10.38
2017-02-22T12:59:51.951Z,10.33
2017-02-22T13:01:00.681Z,10.38
2017-02-22T13:02:10.135Z,10.4
2017-02-22T13:03:18.869Z,10.29
2017-02-22T13:04:27.973Z,10.3
2017-02-22T13:05:37.825Z,10.27
2017-02-22T13:06:46.902Z,10.25
2017-02-22T13:07:56.749Z,10.26
2017-02-22T13:09:06.195Z,10.25
2017-02-22T13:10:15.258Z,10.26
2017-02-22T13:11:24.738Z,10.25
2017-02-22T13:12:34.188Z,10.25
2017-02-22T13:13:44.406Z,10.32
2017-02-22T13:14:53.890Z,10.26
2017-02-22T13:16:02.582Z,10.3
2017-02-22T13:17:11.285Z,10.26
2017-02-22T13:18:20.383Z,10.27
2017-02-22T13:19:29.072Z,10.25
2017-02-22T13:20:38.199Z,10.22
2017-02-22T13:21:47.273Z,10.27
2017-02-22T13:22:56.726Z,10.15
2017-02-22T13:24:06.199Z,10.2
2017-02-22T13:25:14.903Z,10.18
2017-02-22T13:26:24.740Z,10.15
2017-02-22T13:27:33.823Z,10.12
2017-02-22T13:28:43.656Z,10.2
2017-02-22T13:29:52.715Z,10.17
2017-02-22T13:31:02.210Z,10.15
2017-02-22T13:32:11.718Z,10.17
2017-02-22T13:33:20.776Z,10.12
2017-02-22T13:34:30.612Z,10.05
2017-02-22T13:35:39.678Z,10.05
2017-02-22T13:36:48.381Z,10.11
2017-02-22T13:37:58.249Z,10.18
2017-02-22T13:39:07.322Z,10.17
2017-02-22T13:40:16.037Z,10.18
2017-02-22T13:41:25.500Z,10.23
2017-02-22T13:42:35.325Z,10.23
2017-02-22T13:43:44.006Z,10.22
2017-02-22T13:44:53.087Z,10.14
2017-02-22T13:46:01.782Z,10.25
2017-02-22T13:47:11.615Z,10.18
2017-02-22T13:48:21.066Z,10.2
2017-02-22T13:49:30.148Z,10.2
2017-02-22T13:50:40.004Z,10.2
2017-02-22T13:51:49.485Z,10.29
2017-02-22T13:52:58.958Z,10.26
2017-02-22T13:54:09.170Z,10.15
2017-02-22T13:55:18.226Z,10.26
2017-02-22T13:56:27.296Z,10.29
2017-02-22T13:57:36.735Z,10.26
2017-02-22T13:58:45.814Z,10.25
2017-02-22T13:59:54.878Z,10.23
2017-02-22T14:01:04.357Z,10.15
2017-02-22T14:02:14.184Z,10.2
2017-02-22T14:03:23.293Z,10.18
2017-02-22T14:04:32.750Z,10.27
2017-02-22T14:05:41.832Z,10.3
2017-02-22T14:06:51.331Z,10.22
2017-02-22T14:08:00.398Z,10.25
2017-02-22T14:09:09.851Z,10.22
2017-02-22T14:10:19.337Z,10.15
2017-02-22T14:11:28.407Z,10.15
2017-02-22T14:12:37.501Z,10.2
2017-02-22T14:13:46.572Z,10.2
2017-02-22T14:14:55.662Z,10.18
2017-02-22T14:16:04.354Z,10.2
2017-02-22T14:17:13.417Z,10.2
2017-02-22T14:18:22.865Z,10.15
2017-02-22T14:19:31.552Z,10.12
2017-02-22T14:20:41.020Z,10.14
2017-02-22T14:21:50.507Z,10.12
2017-02-22T14:22:59.566Z,10.15
2017-02-22T14:24:08.690Z,10.15
2017-02-22T14:25:17.380Z,10.18
2017-02-22T14:26:26.831Z,10.05
2017-02-22T14:27:35.911Z,10.15
2017-02-22T14:28:44.973Z,10.09
2017-02-22T14:29:54.052Z,10.07
2017-02-22T14:31:02.740Z,10.15
2017-02-22T14:32:11.815Z,10.14
2017-02-22T14:33:20.876Z,10.14
2017-02-22T14:34:30.336Z,10.2
2017-02-22T14:35:39.037Z,10.17
2017-02-22T14:36:48.111Z,10.2
2017-02-22T14:37:57.595Z,10.14
2017-02-22T14:39:07.826Z,10.15
2017-02-22T14:40:16.513Z,10.23
2017-02-22T14:41:25.994Z,10.17
2017-02-22T14:42:35.084Z,10.2
2017-02-22T14:43:44.536Z,10.26
2017-02-22T14:44:53.621Z,10.2
2017-02-22T14:46:02.699Z,10.18
2017-02-22T14:47:12.207Z,10.2
2017-02-22T14:48:20.893Z,10.2
2017-02-22T14:49:29.958Z,10.14
2017-02-22T14:50:39.038Z,10.25
2017-02-22T14:51:48.876Z,10.3
2017-02-22T14:52:58.338Z,10.17
2017-02-22T14:54:07.427Z,10.18
2017-02-22T14:55:16.885Z,10.2
2017-02-22T14:56:26.332Z,10.14
2017-02-22T14:57:35.806Z,10.12
2017-02-22T14:58:45.255Z,10.17
2017-02-22T14:59:54.338Z,10.05
2017-02-22T15:01:04.196Z,10.17
2017-02-22T15:02:12.882Z,10.09
2017-02-22T15:03:22.330Z,10.15
2017-02-22T15:04:32.173Z,10.12
2017-02-22T15:05:41.248Z,10.09
2017-02-22T15:06:50.314Z,10.11
2017-02-22T15:07:59.766Z,10.12
2017-02-22T15:09:09.989Z,10.08